createdAt,value
2018-12-27T00:01:47.871Z,99.90
2018-12-27T00:04:18.363Z,99.90
2018-12-27T00:06:49.094Z,99.90
2018-12-27T00:09:19.875Z,99.90
2018-12-27T00:11:50.325Z,99.90
2018-12-27T00:14:20.831Z,99.90
2018-12-27T00:16:51.790Z,99.90
2018-12-27T00:19:22.552Z,99.90
2018-12-27T00:21:53.062Z,99.90
2018-12-27T00:24:23.582Z,99.90
2018-12-27T00:26:54.110Z,99.90
2018-12-27T00:29:24.641Z,99.90
2018-12-27T00:31:55.328Z,99.90
2018-12-27T00:34:26.033Z,99.90
2018-12-27T00:36:56.768Z,99.90
2018-12-27T00:39:27.404Z,99.90
2018-12-27T00:41:58.092Z,99.90
2018-12-27T00:44:28.676Z,99.90
2018-12-27T00:46:59.651Z,99.90
2018-12-27T00:49:30.642Z,99.90
2018-12-27T00:52:01.296Z,99.90
2018-12-27T00:54:31.906Z,99.90
2018-12-27T00:57:02.604Z,99.90
2018-12-27T00:59:33.184Z,99.90
2018-12-27T01:02:03.874Z,99.90
2018-12-27T01:04:34.495Z,99.90
2018-12-27T01:07:05.111Z,99.90
2018-12-27T01:09:35.697Z,99.90
2018-12-27T01:12:06.351Z,99.90
2018-12-27T01:14:37.051Z,99.90
2018-12-27T01:17:08.079Z,99.90
2018-12-27T01:19:38.732Z,99.90
2018-12-27T01:22:09.318Z,99.90
2018-12-27T01:24:39.940Z,99.90
2018-12-27T01:27:11.090Z,99.90
2018-12-27T01:29:41.749Z,99.90
2018-12-27T01:32:12.515Z,99.90
2018-12-27T01:34:43.220Z,99.90
2018-12-27T01:37:15.343Z,99.90
2018-12-27T01:39:46.571Z,99.90
2018-12-27T01:42:17.177Z,99.90
2018-12-27T01:44:47.726Z,99.90
2018-12-27T01:47:18.357Z,99.90
2018-12-27T01:49:49.017Z,99.90
2018-12-27T01:52:19.903Z,99.90
2018-12-27T01:54:51.447Z,99.90
2018-12-27T01:57:23.251Z,99.90
2018-12-27T01:59:54.252Z,99.90
2018-12-27T02:02:24.940Z,99.90
2018-12-27T02:04:55.760Z,99.90
2018-12-27T02:07:26.556Z,99.90
2018-12-27T02:09:57.169Z,99.90
2018-12-27T02:12:28.520Z,99.90
2018-12-27T02:14:59.885Z,99.90
2018-12-27T02:17:30.599Z,99.90
2018-12-27T02:20:01.285Z,99.90
2018-12-27T02:22:31.985Z,99.90
2018-12-27T02:25:02.904Z,99.90
2018-12-27T02:27:33.638Z,99.90
2018-12-27T02:30:04.291Z,99.90
2018-12-27T02:32:36.968Z,99.90
2018-12-27T02:35:07.583Z,99.90
2018-12-27T02:37:38.921Z,99.90
2018-12-27T02:40:09.535Z,99.90
2018-12-27T02:42:40.218Z,99.90
2018-12-27T02:45:11.271Z,99.90
2018-12-27T02:47:42.048Z,99.90
2018-12-27T02:50:12.653Z,99.90
2018-12-27T02:52:43.424Z,99.90
2018-12-27T02:55:14.459Z,99.90
2018-12-27T02:57:45.212Z,99.90
2018-12-27T03:00:15.953Z,99.90
2018-12-27T03:02:47.368Z,99.90
2018-12-27T03:05:18.051Z,99.90
2018-12-27T03:07:48.720Z,99.90
2018-12-27T03:10:19.348Z,99.90
2018-12-27T03:12:49.996Z,99.90
2018-12-27T03:15:20.673Z,99.90
2018-12-27T03:17:51.481Z,99.90
2018-12-27T03:20:22.179Z,99.90
2018-12-27T03:22:52.995Z,99.90
2018-12-27T03:25:23.819Z,99.90
2018-12-27T03:27:54.479Z,99.90
2018-12-27T03:30:25.173Z,99.90
2018-12-27T03:32:55.941Z,99.90
2018-12-27T03:35:26.575Z,99.90
2018-12-27T03:37:57.251Z,99.90
2018-12-27T03:40:27.837Z,99.90
2018-12-27T03:42:58.564Z,99.90
2018-12-27T03:45:29.179Z,99.90
2018-12-27T03:47:59.888Z,99.90
2018-12-27T03:50:30.614Z,99.90
2018-12-27T03:53:01.692Z,99.90
2018-12-27T03:55:32.413Z,99.90
2018-12-27T03:58:03.485Z,99.90
2018-12-27T04:00:34.138Z,99.90
2018-12-27T04:03:04.883Z,99.90
2018-12-27T04:05:35.485Z,99.90
2018-12-27T04:08:06.141Z,99.90
2018-12-27T04:10:36.733Z,99.90
2018-12-27T04:13:07.940Z,99.90
2018-12-27T04:15:38.417Z,99.90
2018-12-27T04:18:08.928Z,99.90
2018-12-27T04:20:39.476Z,99.90
2018-12-27T04:23:10.137Z,99.90
2018-12-27T04:25:40.849Z,99.90
2018-12-27T04:28:11.289Z,99.90
2018-12-27T04:30:41.891Z,99.90
2018-12-27T04:33:16.993Z,99.90
2018-12-27T04:35:49.779Z,99.90
2018-12-27T04:38:20.246Z,99.90
2018-12-27T04:41:02.953Z,99.90
2018-12-27T04:43:36.294Z,99.90
2018-12-27T04:46:06.074Z,99.90
2018-12-27T04:48:36.212Z,99.90
2018-12-27T04:51:06.126Z,99.90
2018-12-27T04:53:35.880Z,99.90
2018-12-27T04:56:05.744Z,99.90
2018-12-27T04:58:35.626Z,99.90
2018-12-27T05:01:05.396Z,99.90
2018-12-27T05:03:35.170Z,99.90
2018-12-27T05:06:05.048Z,99.90
2018-12-27T05:08:34.817Z,99.90
2018-12-27T05:11:04.676Z,99.90
2018-12-27T05:13:34.452Z,99.90
2018-12-27T05:16:04.346Z,99.90
2018-12-27T05:18:34.168Z,99.90
2018-12-27T05:21:04.077Z,99.90
2018-12-27T05:23:33.849Z,99.90
2018-12-27T05:26:03.689Z,99.90
2018-12-27T05:28:34.443Z,99.90
2018-12-27T05:31:04.239Z,99.90
2018-12-27T05:33:33.998Z,99.90
2018-12-27T05:36:03.866Z,99.90
2018-12-27T05:38:33.705Z,99.90
2018-12-27T05:41:03.473Z,99.90
2018-12-27T05:43:33.274Z,99.90
2018-12-27T05:46:03.110Z,99.90
2018-12-27T05:48:32.978Z,99.90
2018-12-27T05:51:02.758Z,99.90
2018-12-27T05:53:32.601Z,99.90
2018-12-27T05:56:02.443Z,99.90
2018-12-27T05:58:32.239Z,99.90
2018-12-27T06:01:02.167Z,99.90
2018-12-27T06:03:32.316Z,99.90
2018-12-27T06:06:02.162Z,99.90
2018-12-27T06:08:31.943Z,99.90
2018-12-27T06:11:02.068Z,99.90
2018-12-27T06:13:32.384Z,99.90
2018-12-27T06:16:02.174Z,99.90
2018-12-27T06:18:32.404Z,99.90
2018-12-27T06:21:02.376Z,99.90
2018-12-27T06:23:32.252Z,99.90
2018-12-27T06:26:03.294Z,99.90
2018-12-27T06:28:33.133Z,99.90
2018-12-27T06:31:02.912Z,99.90
2018-12-27T06:33:32.759Z,99.90
2018-12-27T06:36:02.546Z,99.90
2018-12-27T06:38:32.431Z,99.90
2018-12-27T06:41:02.204Z,99.90
2018-12-27T06:43:31.991Z,99.90
2018-12-27T06:46:02.079Z,99.90
2018-12-27T06:48:31.874Z,99.90
2018-12-27T06:51:01.658Z,99.90
2018-12-27T06:53:31.786Z,99.90
2018-12-27T06:56:01.549Z,99.90
2018-12-27T06:58:37.711Z,99.90
2018-12-27T07:01:02.916Z,99.90
2018-12-27T07:03:32.684Z,99.90
2018-12-27T07:06:02.452Z,99.90
2018-12-27T07:08:32.319Z,99.90
2018-12-27T07:11:02.573Z,99.90
2018-12-27T07:13:32.386Z,99.90
2018-12-27T07:16:02.659Z,99.90
2018-12-27T07:18:36.380Z,99.90
2018-12-27T07:21:06.339Z,99.90
2018-12-27T07:23:36.310Z,99.90
2018-12-27T07:26:06.532Z,99.90
2018-12-27T07:28:36.289Z,99.90
2018-12-27T07:31:06.407Z,99.90
2018-12-27T07:33:36.278Z,99.90
2018-12-27T07:36:08.010Z,99.90
2018-12-27T07:38:37.853Z,99.90
2018-12-27T07:41:07.982Z,99.90
2018-12-27T07:43:37.740Z,99.90
2018-12-27T07:46:11.070Z,99.90
2018-12-27T07:48:40.134Z,99.90
2018-12-27T07:51:10.113Z,99.90
2018-12-27T07:53:39.953Z,99.90
2018-12-27T07:56:09.803Z,99.90
2018-12-27T07:58:39.582Z,99.90
2018-12-27T08:01:09.354Z,99.90
2018-12-27T08:03:40.270Z,99.90
2018-12-27T08:06:10.059Z,99.90
2018-12-27T08:08:39.823Z,99.90
2018-12-27T08:11:09.613Z,99.90
2018-12-27T08:13:39.743Z,99.90
2018-12-27T08:16:09.605Z,99.90
2018-12-27T08:18:39.377Z,99.90
2018-12-27T08:21:09.460Z,99.90
2018-12-27T08:23:39.295Z,99.90
2018-12-27T08:26:09.168Z,99.90
2018-12-27T08:28:39.409Z,99.90
2018-12-27T08:31:09.184Z,99.90
2018-12-27T08:33:38.969Z,99.90
2018-12-27T08:36:08.734Z,99.90
2018-12-27T08:38:38.682Z,99.90
2018-12-27T08:41:08.596Z,99.90
2018-12-27T08:43:38.457Z,99.90
2018-12-27T08:46:08.541Z,99.90
2018-12-27T08:48:38.897Z,99.90
2018-12-27T08:51:08.759Z,99.90
2018-12-27T08:53:38.551Z,99.90
2018-12-27T08:56:08.421Z,99.90
2018-12-27T08:58:38.205Z,99.90
2018-12-27T09:01:07.996Z,99.90
2018-12-27T09:03:38.118Z,99.90
2018-12-27T09:06:08.149Z,99.90
2018-12-27T09:08:38.126Z,99.90
2018-12-27T09:11:08.499Z,99.90
2018-12-27T09:13:38.638Z,99.90
2018-12-27T09:16:08.571Z,99.90
2018-12-27T09:18:41.160Z,99.90
2018-12-27T09:21:11.026Z,99.90
2018-12-27T09:23:41.127Z,99.90
2018-12-27T09:26:11.342Z,99.90
2018-12-27T09:28:41.106Z,99.90
2018-12-27T09:31:10.959Z,99.90
2018-12-27T09:33:40.805Z,99.90
2018-12-27T09:36:10.823Z,99.90
2018-12-27T09:38:40.640Z,99.90
2018-12-27T09:41:10.433Z,99.90
2018-12-27T09:43:40.194Z,99.90
2018-12-27T09:46:10.050Z,99.90
2018-12-27T09:48:42.597Z,99.90
2018-12-27T09:51:12.658Z,99.90
2018-12-27T09:53:43.007Z,99.90
2018-12-27T09:56:12.966Z,99.90
2018-12-27T09:58:42.903Z,99.90
2018-12-27T10:01:12.856Z,99.90
2018-12-27T10:03:42.658Z,99.90
2018-12-27T10:06:12.490Z,99.90
2018-12-27T10:08:42.395Z,99.90
2018-12-27T10:11:12.484Z,99.90
2018-12-27T10:13:42.389Z,99.90
2018-12-27T10:16:12.165Z,99.90
2018-12-27T10:18:42.059Z,99.90
2018-12-27T10:21:11.933Z,99.90
2018-12-27T10:23:41.686Z,99.90
2018-12-27T10:26:11.786Z,99.90
2018-12-27T10:28:41.551Z,99.90
2018-12-27T10:31:11.375Z,99.90
2018-12-27T10:33:41.130Z,99.90
2018-12-27T10:36:10.977Z,99.90
2018-12-27T10:38:40.749Z,99.90
2018-12-27T10:41:10.576Z,99.90
2018-12-27T10:43:40.505Z,99.90
2018-12-27T10:46:10.308Z,99.90
2018-12-27T10:48:40.063Z,99.90
2018-12-27T10:51:09.894Z,99.90
2018-12-27T10:53:39.729Z,99.90
2018-12-27T10:56:09.885Z,99.90
2018-12-27T10:58:39.658Z,99.90
2018-12-27T11:01:09.478Z,99.90
2018-12-27T11:03:39.391Z,99.90
2018-12-27T11:06:09.591Z,99.90
2018-12-27T11:08:39.371Z,99.90
2018-12-27T11:11:09.886Z,99.90
2018-12-27T11:13:40.135Z,99.90
2018-12-27T11:16:10.901Z,99.90
2018-12-27T11:18:40.857Z,98.90
2018-12-27T11:21:10.895Z,98.50
2018-12-27T11:23:41.453Z,97.40
2018-12-27T11:26:11.464Z,96.90
2018-12-27T11:28:41.333Z,97.50
2018-12-27T11:31:11.353Z,98.90
2018-12-27T11:33:41.286Z,99.90
2018-12-27T11:36:17.160Z,99.90
2018-12-27T11:38:43.759Z,99.90
2018-12-27T11:41:13.673Z,99.90
2018-12-27T11:43:43.575Z,99.90
2018-12-27T11:46:13.726Z,99.90
2018-12-27T11:48:43.581Z,99.90
2018-12-27T11:51:13.461Z,99.90
2018-12-27T11:53:43.593Z,99.90
2018-12-27T11:56:13.738Z,99.90
2018-12-27T11:58:43.920Z,99.90
2018-12-27T12:01:13.976Z,99.90
2018-12-27T12:03:43.841Z,99.90
2018-12-27T12:06:13.789Z,98.50
2018-12-27T12:08:46.662Z,99.60
2018-12-27T12:11:16.959Z,99.90
2018-12-27T12:13:47.479Z,99.90
2018-12-27T12:16:17.505Z,99.90
2018-12-27T12:18:47.391Z,99.90
2018-12-27T12:21:17.383Z,99.90
2018-12-27T12:23:47.703Z,99.90
2018-12-27T12:26:18.066Z,99.90
2018-12-27T12:28:48.260Z,99.90
2018-12-27T12:31:18.587Z,99.90
2018-12-27T12:33:49.593Z,99.90
2018-12-27T12:36:19.893Z,99.90
2018-12-27T12:38:50.487Z,99.90
2018-12-27T12:41:20.801Z,99.90
2018-12-27T12:43:50.921Z,99.90
2018-12-27T12:46:21.454Z,99.90
2018-12-27T12:48:51.715Z,97.80
2018-12-27T12:51:23.142Z,97.80
2018-12-27T12:53:53.622Z,99.90
2018-12-27T12:56:23.919Z,99.90
2018-12-27T12:58:54.143Z,99.90
2018-12-27T13:01:24.444Z,99.90
2018-12-27T13:03:54.726Z,99.90
2018-12-27T13:06:25.040Z,99.90
2018-12-27T13:08:55.322Z,97.90
2018-12-27T13:11:26.811Z,96.10
2018-12-27T13:13:57.101Z,98.90
2018-12-27T13:16:27.319Z,99.90
2018-12-27T13:18:57.907Z,99.90
2018-12-27T13:21:28.780Z,99.90
2018-12-27T13:23:58.980Z,99.90
2018-12-27T13:26:28.823Z,99.90
2018-12-27T13:28:58.592Z,99.90
2018-12-27T13:31:28.378Z,99.90
2018-12-27T13:33:58.282Z,99.90
2018-12-27T13:36:28.477Z,99.90
2018-12-27T13:38:58.263Z,99.90
2018-12-27T13:41:28.025Z,99.90
2018-12-27T13:43:57.884Z,99.90
2018-12-27T13:46:27.684Z,99.90
2018-12-27T13:48:57.474Z,99.90
2018-12-27T13:51:27.250Z,99.90
2018-12-27T13:53:57.013Z,99.90
2018-12-27T13:56:26.882Z,99.90
2018-12-27T13:58:56.730Z,99.90
2018-12-27T14:01:26.575Z,99.90
2018-12-27T14:03:56.494Z,99.90
2018-12-27T14:06:32.568Z,99.90
2018-12-27T14:08:57.753Z,99.90
2018-12-27T14:11:27.663Z,99.90
2018-12-27T14:13:57.515Z,99.90
2018-12-27T14:16:27.450Z,99.90
2018-12-27T14:18:58.185Z,99.90
2018-12-27T14:21:28.045Z,99.90
2018-12-27T14:23:57.839Z,99.90
2018-12-27T14:26:27.831Z,99.90
2018-12-27T14:28:57.691Z,99.90
2018-12-27T14:31:29.343Z,99.90
2018-12-27T14:34:01.093Z,99.90
2018-12-27T14:36:31.614Z,99.90
2018-12-27T14:39:04.668Z,99.90
2018-12-27T14:41:34.478Z,99.90
2018-12-27T14:44:04.358Z,99.90
2018-12-27T14:46:34.799Z,99.90
2018-12-27T14:49:04.673Z,99.90
2018-12-27T14:51:34.447Z,99.90
2018-12-27T14:54:04.374Z,99.90
2018-12-27T14:56:34.238Z,99.90
2018-12-27T14:59:04.087Z,99.90
2018-12-27T15:01:33.940Z,99.90
2018-12-27T15:04:03.797Z,99.90
2018-12-27T15:06:33.643Z,99.90
2018-12-27T15:09:04.794Z,99.90
2018-12-27T15:11:34.626Z,99.90
2018-12-27T15:14:04.646Z,99.90
2018-12-27T15:16:42.060Z,99.90
2018-12-27T15:19:12.545Z,99.90
2018-12-27T15:21:42.768Z,99.90
2018-12-27T15:24:13.049Z,99.90
2018-12-27T15:26:46.058Z,99.90
2018-12-27T15:29:17.228Z,99.90
2018-12-27T15:31:46.971Z,99.90
2018-12-27T15:34:16.896Z,99.90
2018-12-27T15:36:46.798Z,99.90
2018-12-27T15:39:16.942Z,99.90
2018-12-27T15:41:46.771Z,99.90
2018-12-27T15:44:16.656Z,99.90
2018-12-27T15:46:46.430Z,99.90
2018-12-27T15:49:16.558Z,99.90
2018-12-27T15:52:00.902Z,99.90
2018-12-27T15:54:31.034Z,99.90
2018-12-27T15:57:00.879Z,99.90
2018-12-27T15:59:30.679Z,99.90
2018-12-27T16:02:00.463Z,99.90
2018-12-27T16:04:30.240Z,99.90
2018-12-27T16:07:01.960Z,99.90
2018-12-27T16:09:34.875Z,99.90
2018-12-27T16:12:04.797Z,99.90
2018-12-27T16:14:34.714Z,99.90
2018-12-27T16:17:05.099Z,99.90
2018-12-27T16:19:35.762Z,99.90
2018-12-27T16:22:05.633Z,99.90
2018-12-27T16:24:35.473Z,99.90
2018-12-27T16:27:05.342Z,99.90
2018-12-27T16:29:35.171Z,99.90
2018-12-27T16:32:05.045Z,99.90
2018-12-27T16:34:35.295Z,99.90
2018-12-27T16:37:08.895Z,99.90
2018-12-27T16:39:38.405Z,99.90
2018-12-27T16:42:08.351Z,99.90
2018-12-27T16:44:38.232Z,99.90
2018-12-27T16:47:08.026Z,99.90
2018-12-27T16:49:37.846Z,99.90
2018-12-27T16:52:07.771Z,99.90
2018-12-27T16:54:37.806Z,99.90
2018-12-27T16:57:08.572Z,99.90
2018-12-27T16:59:38.500Z,99.90
2018-12-27T17:02:08.457Z,99.90
2018-12-27T17:04:38.521Z,99.90
2018-12-27T17:07:08.381Z,99.90
2018-12-27T17:09:38.243Z,99.90
2018-12-27T17:12:08.483Z,99.90
2018-12-27T17:14:38.315Z,99.90
2018-12-27T17:17:08.136Z,99.90
2018-12-27T17:19:38.030Z,99.90
2018-12-27T17:22:07.834Z,99.90
2018-12-27T17:24:37.769Z,99.90
2018-12-27T17:27:08.009Z,99.90
2018-12-27T17:29:38.198Z,99.90
2018-12-27T17:32:09.387Z,99.90
2018-12-27T17:34:42.486Z,99.90
2018-12-27T17:37:12.426Z,99.90
2018-12-27T17:39:42.337Z,99.90
2018-12-27T17:42:12.226Z,99.90
2018-12-27T17:44:42.001Z,99.90
2018-12-27T17:47:11.782Z,99.90
2018-12-27T17:49:41.628Z,99.90
2018-12-27T17:52:11.430Z,99.90
2018-12-27T17:54:41.281Z,99.90
2018-12-27T17:57:11.229Z,99.90
2018-12-27T17:59:41.239Z,99.90
2018-12-27T18:02:11.214Z,99.90
2018-12-27T18:04:41.167Z,99.90
2018-12-27T18:07:11.102Z,99.90
2018-12-27T18:09:41.233Z,99.90
2018-12-27T18:12:11.100Z,99.90
2018-12-27T18:14:41.351Z,99.90
2018-12-27T18:17:11.151Z,99.90
2018-12-27T18:19:40.975Z,99.90
2018-12-27T18:22:10.782Z,99.90
2018-12-27T18:24:42.180Z,99.90
2018-12-27T18:27:12.090Z,99.90
2018-12-27T18:29:41.966Z,99.90
2018-12-27T18:32:11.813Z,99.90
2018-12-27T18:34:41.655Z,99.90
2018-12-27T18:37:11.602Z,99.90
2018-12-27T18:39:41.472Z,99.90
2018-12-27T18:42:11.368Z,99.90
2018-12-27T18:44:41.242Z,99.90
2018-12-27T18:47:11.382Z,99.90
2018-12-27T18:49:41.316Z,99.90
2018-12-27T18:52:11.622Z,99.90
2018-12-27T18:54:41.625Z,99.90
